createdAt,value
2017-06-17T00:00:48.906Z,15.40
2017-06-17T00:03:16.380Z,15.40
2017-06-17T00:05:43.881Z,15.40
2017-06-17T00:08:11.367Z,15.40
2017-06-17T00:10:39.793Z,15.40
2017-06-17T00:13:07.270Z,15.30
2017-06-17T00:15:34.738Z,15.30
2017-06-17T00:18:02.229Z,15.30
2017-06-17T00:20:29.698Z,15.20
2017-06-17T00:22:57.221Z,15.20
2017-06-17T00:25:24.699Z,15.20
2017-06-17T00:27:52.173Z,15.20
2017-06-17T00:30:19.673Z,15.20
2017-06-17T00:32:47.154Z,15.10
2017-06-17T00:35:16.574Z,15.10
2017-06-17T00:37:44.049Z,15.10
2017-06-17T00:40:11.554Z,15.10
2017-06-17T00:42:39.973Z,15.00
2017-06-17T00:45:07.457Z,15.00
2017-06-17T00:47:34.971Z,14.90
2017-06-17T00:50:03.406Z,14.90
2017-06-17T00:52:30.885Z,14.90
2017-06-17T00:54:58.381Z,14.80
2017-06-17T00:57:25.877Z,14.70
2017-06-17T00:59:53.393Z,14.70
2017-06-17T01:02:20.873Z,14.70
2017-06-17T01:04:49.310Z,14.70
2017-06-17T01:07:16.817Z,14.70
2017-06-17T01:09:44.297Z,14.70
2017-06-17T01:12:11.805Z,14.60
2017-06-17T01:14:39.281Z,14.70
2017-06-17T01:17:06.765Z,14.60
2017-06-17T01:19:35.286Z,14.60
2017-06-17T01:22:03.713Z,14.50
2017-06-17T01:24:31.234Z,14.60
2017-06-17T01:26:58.706Z,14.50
2017-06-17T01:29:26.186Z,14.50
2017-06-17T01:31:53.682Z,14.40
2017-06-17T01:34:21.553Z,14.40
2017-06-17T01:36:49.078Z,14.40
2017-06-17T01:39:16.574Z,14.40
2017-06-17T01:41:44.049Z,14.30
2017-06-17T01:44:11.961Z,14.30
2017-06-17T01:46:39.462Z,14.40
2017-06-17T01:49:06.938Z,14.30
2017-06-17T01:51:34.441Z,14.20
2017-06-17T01:54:02.856Z,14.20
2017-06-17T01:56:30.368Z,14.20
2017-06-17T01:58:57.849Z,14.20
2017-06-17T02:01:25.353Z,14.20
2017-06-17T02:03:52.837Z,14.20
2017-06-17T02:06:20.324Z,14.10
2017-06-17T02:08:47.829Z,14.10
2017-06-17T02:11:16.258Z,14.00
2017-06-17T02:13:43.754Z,14.00
2017-06-17T02:16:11.234Z,14.00
2017-06-17T02:18:38.745Z,13.90
2017-06-17T02:21:11.937Z,13.90
2017-06-17T02:23:39.449Z,13.90
2017-06-17T02:26:06.925Z,13.90
2017-06-17T02:28:34.414Z,13.90
2017-06-17T02:31:01.917Z,14.00
2017-06-17T02:33:29.411Z,13.90
2017-06-17T02:35:58.825Z,13.90
2017-06-17T02:38:27.218Z,13.90
2017-06-17T02:40:54.703Z,13.90
2017-06-17T02:43:22.201Z,13.90
2017-06-17T02:45:49.693Z,13.90
2017-06-17T02:48:17.201Z,13.90
2017-06-17T02:50:44.681Z,13.90
2017-06-17T02:53:13.102Z,13.80
2017-06-17T02:55:41.485Z,13.80
2017-06-17T02:58:08.965Z,13.70
2017-06-17T03:00:36.454Z,13.70
2017-06-17T03:03:05.914Z,13.70
2017-06-17T03:05:33.392Z,13.70
2017-06-17T03:08:00.893Z,13.70
2017-06-17T03:10:28.393Z,13.60
2017-06-17T03:12:55.874Z,13.60
2017-06-17T03:15:23.778Z,13.60
2017-06-17T03:17:51.262Z,13.60
2017-06-17T03:20:18.753Z,13.60
2017-06-17T03:22:46.653Z,13.50
2017-06-17T03:25:14.134Z,13.50
2017-06-17T03:27:41.650Z,13.50
2017-06-17T03:30:09.145Z,13.50
2017-06-17T03:32:36.633Z,13.50
2017-06-17T03:35:04.141Z,13.40
2017-06-17T03:37:31.629Z,13.40
2017-06-17T03:39:59.137Z,13.40
2017-06-17T03:42:26.629Z,13.40
2017-06-17T03:44:54.118Z,13.40
2017-06-17T03:47:21.636Z,13.40
2017-06-17T03:49:49.112Z,13.50
2017-06-17T03:52:16.640Z,13.40
2017-06-17T03:54:45.053Z,13.40
2017-06-17T03:57:12.549Z,13.50
2017-06-17T03:59:40.450Z,13.50
2017-06-17T04:02:07.952Z,13.50
2017-06-17T04:04:35.446Z,13.60
2017-06-17T04:07:02.953Z,13.60
2017-06-17T04:09:30.453Z,13.60
2017-06-17T04:11:57.993Z,13.70
2017-06-17T04:14:25.496Z,13.70
2017-06-17T04:16:53.007Z,13.70
2017-06-17T04:19:20.913Z,13.80
2017-06-17T04:21:48.422Z,13.80
2017-06-17T04:24:16.852Z,13.90
2017-06-17T04:26:44.353Z,13.90
2017-06-17T04:29:11.857Z,14.00
2017-06-17T04:31:41.305Z,13.90
2017-06-17T04:34:08.801Z,13.90
2017-06-17T04:36:36.318Z,14.00
2017-06-17T04:39:03.823Z,14.00
2017-06-17T04:41:32.265Z,14.10
2017-06-17T04:43:59.761Z,14.10
2017-06-17T04:46:27.253Z,14.20
2017-06-17T04:48:56.687Z,14.30
2017-06-17T04:51:24.198Z,14.30
2017-06-17T04:53:51.694Z,14.30
2017-06-17T04:56:20.098Z,14.40
2017-06-17T04:58:49.925Z,14.40
2017-06-17T05:01:17.426Z,14.40
2017-06-17T05:03:44.930Z,14.40
2017-06-17T05:06:12.430Z,14.50
2017-06-17T05:08:39.934Z,14.50
2017-06-17T05:11:07.437Z,14.50
2017-06-17T05:13:34.933Z,14.50
2017-06-17T05:16:04.350Z,14.60
2017-06-17T05:18:32.245Z,14.70
2017-06-17T05:20:59.737Z,14.70
2017-06-17T05:23:27.242Z,14.80
2017-06-17T05:25:54.742Z,14.90
2017-06-17T05:28:22.229Z,14.90
2017-06-17T05:30:49.735Z,15.00
2017-06-17T05:33:18.122Z,15.10
2017-06-17T05:35:45.618Z,15.20
2017-06-17T05:38:13.110Z,15.20
2017-06-17T05:40:40.617Z,15.20
2017-06-17T05:43:08.150Z,15.30
2017-06-17T05:45:35.638Z,15.40
2017-06-17T05:48:04.061Z,15.50
2017-06-17T05:50:31.558Z,15.70
2017-06-17T05:52:59.049Z,15.80
2017-06-17T05:55:26.546Z,15.80
2017-06-17T05:57:54.050Z,15.90
2017-06-17T06:00:21.546Z,16.00
2017-06-17T06:02:49.063Z,16.00
2017-06-17T06:05:16.561Z,16.00
2017-06-17T06:07:44.446Z,16.00
2017-06-17T06:10:13.866Z,16.00
2017-06-17T06:12:42.279Z,16.10
2017-06-17T06:15:09.787Z,16.10
2017-06-17T06:17:37.297Z,16.10
2017-06-17T06:20:04.793Z,16.10
2017-06-17T06:22:32.306Z,16.30
2017-06-17T06:24:59.810Z,16.40
2017-06-17T06:27:29.309Z,16.40
2017-06-17T06:29:56.816Z,16.40
2017-06-17T06:32:24.309Z,16.30
2017-06-17T06:34:51.809Z,16.40
2017-06-17T06:37:19.318Z,16.60
2017-06-17T06:39:48.750Z,16.50
2017-06-17T06:42:16.245Z,16.50
2017-06-17T06:44:43.746Z,16.50
2017-06-17T06:47:11.249Z,16.60
2017-06-17T06:49:38.750Z,16.50
2017-06-17T06:52:06.251Z,16.70
2017-06-17T06:54:33.749Z,16.80
2017-06-17T06:57:01.249Z,16.70
2017-06-17T06:59:28.753Z,16.70
2017-06-17T07:01:56.255Z,16.60
2017-06-17T07:04:23.749Z,16.50
2017-06-17T07:06:51.249Z,16.60
2017-06-17T07:09:19.137Z,16.80
2017-06-17T07:11:46.638Z,16.70
2017-06-17T07:14:14.124Z,16.80
2017-06-17T07:16:43.582Z,16.90
2017-06-17T07:19:11.077Z,16.90
2017-06-17T07:21:38.566Z,17.10
2017-06-17T07:24:06.457Z,17.10
2017-06-17T07:26:34.907Z,17.10
2017-06-17T07:29:03.685Z,17.30
2017-06-17T07:31:31.590Z,17.30
2017-06-17T07:33:59.097Z,17.30
2017-06-17T07:36:27.530Z,17.30
2017-06-17T07:38:55.029Z,17.40
2017-06-17T07:41:22.529Z,17.40
2017-06-17T07:43:50.029Z,17.40
2017-06-17T07:46:17.538Z,17.40
2017-06-17T07:48:45.054Z,17.60
2017-06-17T07:51:12.550Z,17.60
2017-06-17T07:53:40.049Z,17.60
2017-06-17T07:56:07.541Z,17.70
2017-06-17T07:58:36.341Z,17.90
2017-06-17T08:01:03.849Z,17.90
2017-06-17T08:03:31.346Z,17.90
2017-06-17T08:05:58.833Z,18.00
2017-06-17T08:08:26.330Z,18.00
2017-06-17T08:10:53.830Z,18.00
2017-06-17T08:13:21.325Z,18.00
2017-06-17T08:15:49.725Z,17.90
2017-06-17T08:18:17.229Z,17.80
2017-06-17T08:20:44.734Z,17.80
2017-06-17T08:23:14.151Z,17.80
2017-06-17T08:25:41.650Z,17.90
2017-06-17T08:28:09.149Z,17.90
2017-06-17T08:30:36.653Z,18.00
2017-06-17T08:33:04.152Z,18.10
2017-06-17T08:35:31.650Z,18.10
2017-06-17T08:37:59.545Z,18.30
2017-06-17T08:40:27.124Z,18.30
2017-06-17T08:42:54.628Z,18.40
2017-06-17T08:45:24.058Z,18.40
2017-06-17T08:47:52.437Z,18.40
2017-06-17T08:50:19.942Z,18.30
2017-06-17T08:52:47.425Z,18.40
2017-06-17T08:55:14.918Z,18.30
2017-06-17T08:57:42.399Z,18.30
2017-06-17T09:00:10.061Z,18.20
2017-06-17T09:02:37.554Z,18.20
2017-06-17T09:05:05.904Z,18.40
2017-06-17T09:07:33.410Z,18.50
2017-06-17T09:10:02.235Z,18.60
2017-06-17T09:12:30.622Z,18.60
2017-06-17T09:14:58.106Z,18.60
2017-06-17T09:17:25.609Z,18.60
2017-06-17T09:19:53.093Z,18.60
2017-06-17T09:22:22.526Z,18.60
2017-06-17T09:24:50.005Z,18.70
2017-06-17T09:27:17.514Z,18.80
2017-06-17T09:29:45.005Z,18.90
2017-06-17T09:32:12.550Z,19.10
2017-06-17T09:34:40.057Z,19.00
2017-06-17T09:37:08.426Z,18.90
2017-06-17T09:39:35.913Z,19.00
2017-06-17T09:42:03.417Z,19.00
2017-06-17T09:44:31.335Z,19.10
2017-06-17T09:46:58.847Z,19.00
2017-06-17T09:49:26.361Z,19.00
2017-06-17T09:51:53.833Z,19.10
2017-06-17T09:54:22.237Z,19.10
2017-06-17T09:56:50.134Z,19.00
2017-06-17T09:59:17.618Z,19.00
2017-06-17T10:01:45.110Z,19.10
2017-06-17T10:04:12.577Z,19.10
2017-06-17T10:06:40.470Z,19.10
2017-06-17T10:09:07.971Z,19.10
2017-06-17T10:11:35.510Z,19.00
2017-06-17T10:14:02.989Z,19.30
2017-06-17T10:16:30.486Z,19.20
2017-06-17T10:18:57.973Z,19.20
2017-06-17T10:21:25.474Z,19.40
2017-06-17T10:23:53.886Z,19.60
2017-06-17T10:26:23.354Z,19.60
2017-06-17T10:28:51.810Z,19.70
2017-06-17T10:31:19.343Z,19.70
2017-06-17T10:33:46.821Z,19.80
2017-06-17T10:36:14.317Z,20.00
2017-06-17T10:38:41.814Z,20.10
2017-06-17T10:41:09.310Z,20.10
2017-06-17T10:43:37.194Z,20.20
2017-06-17T10:46:04.724Z,20.00
2017-06-17T10:48:32.206Z,20.00
2017-06-17T10:50:59.697Z,20.10
2017-06-17T10:53:27.207Z,20.10
2017-06-17T10:55:54.702Z,20.00
2017-06-17T10:58:22.186Z,20.10
2017-06-17T11:00:49.697Z,20.00
2017-06-17T11:03:17.569Z,20.10
2017-06-17T11:05:45.082Z,20.10
2017-06-17T11:08:12.550Z,20.20
2017-06-17T11:10:40.022Z,20.30
2017-06-17T11:13:07.521Z,20.30
2017-06-17T11:15:35.005Z,20.40
2017-06-17T11:18:02.518Z,20.40
2017-06-17T11:20:30.011Z,20.60
2017-06-17T11:22:58.430Z,20.40
2017-06-17T11:25:26.855Z,20.30
2017-06-17T11:27:54.346Z,20.40
2017-06-17T11:30:21.857Z,20.40
2017-06-17T11:32:49.978Z,20.40
2017-06-17T11:35:17.462Z,20.30
2017-06-17T11:37:44.981Z,20.30
2017-06-17T11:40:12.471Z,20.40
2017-06-17T11:42:40.967Z,20.10
2017-06-17T11:45:08.470Z,20.30
2017-06-17T11:47:35.952Z,20.30
2017-06-17T11:50:03.469Z,20.30
2017-06-17T11:52:30.946Z,20.40
2017-06-17T11:54:58.497Z,20.60
2017-06-17T11:57:25.990Z,20.70
2017-06-17T11:59:53.489Z,20.70
2017-06-17T12:02:20.999Z,20.70
2017-06-17T12:04:48.490Z,20.80
2017-06-17T12:07:16.947Z,20.70
2017-06-17T12:09:44.854Z,20.70
2017-06-17T12:12:12.329Z,20.70
2017-06-17T12:14:41.745Z,20.70
2017-06-17T12:17:09.232Z,21.00
2017-06-17T12:19:36.726Z,21.10
2017-06-17T12:22:04.238Z,21.00
2017-06-17T12:24:31.719Z,21.10
2017-06-17T12:26:59.629Z,21.00
2017-06-17T12:29:27.097Z,21.00
2017-06-17T12:31:54.578Z,21.00
2017-06-17T12:34:22.089Z,21.00
2017-06-17T12:36:49.562Z,21.10
2017-06-17T12:39:17.429Z,21.00
2017-06-17T12:41:45.308Z,21.00
2017-06-17T12:44:13.157Z,21.00
2017-06-17T12:46:41.585Z,20.90
2017-06-17T12:49:09.474Z,20.80
2017-06-17T12:51:36.948Z,20.80
2017-06-17T12:54:04.438Z,20.80
2017-06-17T12:56:31.919Z,20.70
2017-06-17T12:59:01.735Z,20.70
2017-06-17T13:01:29.302Z,20.70
2017-06-17T13:03:56.774Z,20.80
2017-06-17T13:06:25.432Z,20.90
2017-06-17T13:08:53.005Z,20.90
2017-06-17T13:11:20.483Z,20.90
2017-06-17T13:13:48.032Z,20.70
2017-06-17T13:16:15.509Z,20.70
2017-06-17T13:18:42.983Z,20.80
2017-06-17T13:21:10.483Z,21.00
2017-06-17T13:23:38.354Z,20.80
2017-06-17T13:26:05.857Z,20.80
2017-06-17T13:28:33.342Z,20.70
2017-06-17T13:31:00.818Z,20.70
2017-06-17T13:33:28.701Z,20.90
2017-06-17T13:35:56.185Z,20.90
2017-06-17T13:38:23.703Z,21.00
2017-06-17T13:40:51.177Z,21.10
2017-06-17T13:43:18.714Z,21.10
2017-06-17T13:45:46.650Z,20.90
2017-06-17T13:48:14.179Z,20.90
2017-06-17T13:50:41.677Z,20.90
2017-06-17T13:53:09.173Z,21.00
2017-06-17T13:55:36.654Z,21.00
2017-06-17T13:58:04.170Z,21.00
2017-06-17T14:00:31.642Z,21.00
2017-06-17T14:02:59.125Z,20.90
2017-06-17T14:05:26.614Z,20.90
2017-06-17T14:07:54.126Z,20.90
2017-06-17T14:10:21.600Z,21.00
2017-06-17T14:12:49.094Z,20.90
2017-06-17T14:15:16.606Z,20.80
2017-06-17T14:17:44.162Z,20.80
2017-06-17T14:20:11.970Z,20.70
2017-06-17T14:22:39.557Z,20.60
2017-06-17T14:25:08.055Z,20.70
2017-06-17T14:27:35.632Z,20.80
2017-06-17T14:30:03.171Z,21.00
2017-06-17T14:32:30.691Z,20.90
2017-06-17T14:34:58.622Z,21.10
2017-06-17T14:37:28.132Z,21.10
2017-06-17T14:39:55.678Z,21.20
2017-06-17T14:42:23.226Z,21.30
2017-06-17T14:44:50.747Z,21.30
2017-06-17T14:47:18.259Z,21.30
2017-06-17T14:49:45.838Z,21.40
2017-06-17T14:52:13.326Z,21.50
2017-06-17T14:54:41.306Z,21.30
2017-06-17T14:57:08.823Z,21.30
2017-06-17T14:59:36.327Z,21.20
2017-06-17T15:02:03.908Z,21.30
2017-06-17T15:04:31.434Z,21.10
2017-06-17T15:06:59.026Z,21.00
2017-06-17T15:09:26.579Z,21.00
2017-06-17T15:11:54.123Z,21.00
2017-06-17T15:14:21.650Z,21.00
2017-06-17T15:16:49.195Z,21.00
2017-06-17T15:19:16.738Z,21.10
2017-06-17T15:21:44.284Z,21.20
2017-06-17T15:24:11.834Z,21.40
2017-06-17T15:26:39.452Z,21.30
2017-06-17T15:29:07.000Z,21.10
2017-06-17T15:31:34.566Z,21.20
2017-06-17T15:34:03.461Z,21.10
2017-06-17T15:36:30.986Z,21.10
2017-06-17T15:38:58.623Z,21.10
2017-06-17T15:41:26.138Z,20.90
2017-06-17T15:43:53.731Z,20.80
2017-06-17T15:46:21.261Z,20.80
2017-06-17T15:48:49.189Z,20.80
2017-06-17T15:51:16.778Z,20.80
2017-06-17T15:53:44.322Z,20.90
2017-06-17T15:56:11.906Z,20.90
2017-06-17T15:58:39.456Z,21.00
2017-06-17T16:01:07.959Z,21.00
2017-06-17T16:03:35.505Z,21.00
2017-06-17T16:06:03.052Z,20.90
2017-06-17T16:08:30.598Z,20.90
2017-06-17T16:10:58.094Z,20.80
2017-06-17T16:13:25.661Z,21.00
2017-06-17T16:15:55.152Z,21.00
2017-06-17T16:18:22.667Z,21.10
2017-06-17T16:20:50.246Z,21.10
2017-06-17T16:23:17.792Z,21.00
2017-06-17T16:25:45.327Z,21.00
2017-06-17T16:28:12.884Z,21.00
2017-06-17T16:30:40.404Z,21.00
2017-06-17T16:33:08.025Z,21.10
2017-06-17T16:35:35.552Z,21.10
2017-06-17T16:38:03.071Z,21.20
2017-06-17T16:40:30.590Z,21.30
2017-06-17T16:42:58.113Z,21.30
2017-06-17T16:45:25.626Z,21.40
2017-06-17T16:47:53.553Z,21.80
2017-06-17T16:50:21.099Z,21.80
2017-06-17T16:52:48.666Z,21.90
2017-06-17T16:55:16.214Z,22.00
2017-06-17T16:57:44.673Z,21.90
2017-06-17T17:00:12.228Z,21.80
2017-06-17T17:02:40.729Z,22.00
2017-06-17T17:05:08.253Z,22.20
2017-06-17T17:07:36.180Z,21.90
2017-06-17T17:10:03.713Z,21.90
2017-06-17T17:12:31.270Z,21.80
2017-06-17T17:14:58.787Z,21.60
2017-06-17T17:17:26.319Z,21.60
2017-06-17T17:19:53.854Z,21.40
2017-06-17T17:22:21.369Z,21.20
2017-06-17T17:24:48.889Z,21.20
2017-06-17T17:27:16.466Z,21.10
2017-06-17T17:29:44.025Z,21.10
2017-06-17T17:32:11.575Z,21.20
2017-06-17T17:34:39.130Z,21.20
2017-06-17T17:37:06.687Z,21.10
2017-06-17T17:39:35.164Z,21.10
2017-06-17T17:42:02.748Z,21.10
2017-06-17T17:44:30.278Z,21.10
2017-06-17T17:46:57.793Z,21.00
2017-06-17T17:49:25.339Z,21.00
2017-06-17T17:51:53.862Z,21.00
2017-06-17T17:54:21.408Z,20.90
2017-06-17T17:56:48.951Z,20.70
2017-06-17T17:59:16.486Z,20.70
2017-06-17T18:01:45.999Z,20.70
2017-06-17T18:04:13.503Z,20.70
2017-06-17T18:06:41.052Z,20.70
2017-06-17T18:09:08.637Z,20.70
2017-06-17T18:11:36.189Z,20.70
2017-06-17T18:14:03.724Z,20.70
2017-06-17T18:16:31.251Z,20.70
2017-06-17T18:18:59.726Z,20.70
2017-06-17T18:21:27.288Z,20.60
2017-06-17T18:23:54.847Z,20.60
2017-06-17T18:26:22.376Z,20.60
2017-06-17T18:28:49.900Z,20.50
2017-06-17T18:31:17.909Z,20.50
2017-06-17T18:33:45.388Z,20.50
2017-06-17T18:36:12.877Z,20.50
2017-06-17T18:38:40.367Z,20.50
2017-06-17T18:41:07.877Z,20.50
2017-06-17T18:43:35.369Z,20.50
2017-06-17T18:46:02.877Z,20.50
2017-06-17T18:48:31.334Z,20.50
2017-06-17T18:50:59.232Z,20.50
2017-06-17T18:53:26.721Z,20.50
2017-06-17T18:55:55.190Z,20.40
2017-06-17T18:58:22.801Z,20.40
2017-06-17T19:00:50.697Z,20.40
2017-06-17T19:03:18.181Z,20.50
2017-06-17T19:05:47.625Z,20.50
2017-06-17T19:08:15.098Z,20.50
2017-06-17T19:10:42.614Z,20.50
2017-06-17T19:13:10.109Z,20.60
2017-06-17T19:15:38.007Z,20.70
2017-06-17T19:18:05.506Z,20.70
2017-06-17T19:20:33.048Z,20.60
2017-06-17T19:23:00.554Z,20.50
2017-06-17T19:25:30.012Z,20.40
2017-06-17T19:27:57.493Z,20.40
2017-06-17T19:30:24.995Z,20.30
2017-06-17T19:32:52.498Z,20.30
2017-06-17T19:35:21.946Z,20.30
2017-06-17T19:37:49.429Z,20.30
2017-06-17T19:40:16.937Z,20.30
2017-06-17T19:42:44.530Z,20.20
2017-06-17T19:45:12.045Z,20.20
2017-06-17T19:47:39.547Z,20.10
2017-06-17T19:50:07.026Z,20.10
2017-06-17T19:52:34.553Z,19.90
2017-06-17T19:55:02.037Z,19.90
2017-06-17T19:57:29.529Z,19.90
2017-06-17T19:59:57.033Z,19.90
2017-06-17T20:02:24.560Z,19.90
2017-06-17T20:04:52.082Z,19.90
2017-06-17T20:07:19.570Z,19.90
2017-06-17T20:09:47.498Z,19.90
2017-06-17T20:12:14.989Z,19.90
2017-06-17T20:14:43.773Z,19.70
2017-06-17T20:17:11.285Z,19.80
2017-06-17T20:19:38.765Z,19.70
2017-06-17T20:22:11.870Z,19.70
2017-06-17T20:24:40.709Z,19.60
2017-06-17T20:27:08.210Z,19.60
2017-06-17T20:29:35.724Z,19.70
2017-06-17T20:32:03.214Z,19.70
2017-06-17T20:34:30.750Z,19.70
2017-06-17T20:36:58.273Z,19.60
2017-06-17T20:39:25.789Z,19.60
2017-06-17T20:41:54.233Z,19.50
2017-06-17T20:44:21.753Z,19.50
2017-06-17T20:46:49.675Z,19.50
2017-06-17T20:49:17.159Z,19.50
2017-06-17T20:51:44.661Z,19.50
2017-06-17T20:54:12.168Z,19.50
2017-06-17T20:56:39.717Z,19.40
2017-06-17T20:59:08.146Z,19.40
2017-06-17T21:01:35.638Z,19.40
2017-06-17T21:04:03.145Z,19.30
2017-06-17T21:06:30.640Z,19.30
2017-06-17T21:08:58.153Z,19.20
2017-06-17T21:11:25.633Z,19.30
2017-06-17T21:13:53.149Z,19.30
2017-06-17T21:16:20.629Z,19.40
2017-06-17T21:18:48.509Z,19.40
2017-06-17T21:21:16.062Z,19.40
2017-06-17T21:23:43.965Z,19.20
2017-06-17T21:26:11.449Z,19.20
2017-06-17T21:28:38.979Z,19.20
2017-06-17T21:31:06.462Z,19.20
2017-06-17T21:33:33.961Z,19.20
2017-06-17T21:36:01.476Z,19.20
2017-06-17T21:38:30.929Z,19.20
2017-06-17T21:40:58.435Z,19.30
2017-06-17T21:43:25.960Z,19.20
2017-06-17T21:45:53.451Z,19.10
2017-06-17T21:48:22.897Z,19.10
2017-06-17T21:50:50.381Z,19.10
2017-06-17T21:53:17.889Z,19.10
2017-06-17T21:55:45.427Z,19.20
2017-06-17T21:58:12.926Z,19.20
2017-06-17T22:00:40.806Z,19.10
2017-06-17T22:03:08.318Z,19.10
2017-06-17T22:05:35.797Z,19.00
2017-06-17T22:08:03.302Z,19.00
2017-06-17T22:10:30.809Z,19.00
2017-06-17T22:13:00.257Z,19.00
2017-06-17T22:15:27.785Z,19.00
2017-06-17T22:17:56.682Z,19.00
2017-06-17T22:20:24.169Z,19.00
2017-06-17T22:22:53.654Z,19.00
2017-06-17T22:25:21.150Z,19.10
2017-06-17T22:27:48.661Z,19.00
2017-06-17T22:30:16.151Z,19.00
2017-06-17T22:32:43.662Z,19.00
2017-06-17T22:35:11.150Z,19.00
2017-06-17T22:37:40.608Z,19.00
2017-06-17T22:40:09.126Z,19.00
2017-06-17T22:42:36.621Z,19.00
2017-06-17T22:45:04.102Z,18.90
2017-06-17T22:47:32.969Z,19.00
2017-06-17T22:50:00.469Z,19.00
2017-06-17T22:52:27.992Z,18.90
2017-06-17T22:54:55.469Z,18.90
2017-06-17T22:57:23.001Z,18.80
2017-06-17T22:59:50.490Z,18.90
2017-06-17T23:02:17.997Z,18.80
2017-06-17T23:04:45.482Z,18.80
2017-06-17T23:07:12.977Z,18.70
2017-06-17T23:09:42.486Z,18.70
2017-06-17T23:12:10.014Z,18.70
2017-06-17T23:14:37.947Z,18.60
2017-06-17T23:17:05.502Z,18.60
2017-06-17T23:19:33.062Z,18.70
2017-06-17T23:22:01.581Z,18.70
2017-06-17T23:24:29.117Z,18.70
2017-06-17T23:26:56.706Z,18.60
2017-06-17T23:29:24.269Z,18.60
2017-06-17T23:31:51.814Z,18.60
2017-06-17T23:34:19.359Z,18.60
2017-06-17T23:36:46.914Z,18.60
2017-06-17T23:39:14.434Z,18.60
2017-06-17T23:41:41.998Z,18.60
2017-06-17T23:44:09.548Z,18.60
2017-06-17T23:46:37.111Z,18.50
2017-06-17T23:49:04.658Z,18.50
2017-06-17T23:51:32.186Z,18.60
2017-06-17T23:54:00.137Z,18.50
2017-06-17T23:56:27.658Z,18.50
2017-06-17T23:58:55.186Z,18.50
